createdAt,value
2023-04-28T00:00:07.906Z,3.20
2023-04-28T00:02:36.199Z,2.47
2023-04-28T00:05:04.858Z,2.88
2023-04-28T00:07:32.990Z,3.47
2023-04-28T00:10:01.076Z,3.80
2023-04-28T00:12:29.161Z,3.35
2023-04-28T00:14:58.578Z,3.30
2023-04-28T00:17:26.688Z,3.15
2023-04-28T00:19:54.868Z,3.17
2023-04-28T00:22:23.168Z,3.15
2023-04-28T00:24:51.374Z,3.17
2023-04-28T00:27:20.720Z,3.17
2023-04-28T00:29:48.850Z,2.85
2023-04-28T00:32:18.312Z,2.88
2023-04-28T00:34:46.374Z,3.10
2023-04-28T00:37:14.527Z,2.60
2023-04-28T00:39:45.700Z,3.35
2023-04-28T00:42:13.854Z,3.08
2023-04-28T00:44:42.100Z,3.17
2023-04-28T00:47:11.091Z,3.38
2023-04-28T00:49:40.888Z,2.85
2023-04-28T00:52:08.873Z,3.30
2023-04-28T00:54:37.000Z,3.28
2023-04-28T00:57:05.344Z,3.03
2023-04-28T00:59:33.407Z,2.83
2023-04-28T01:02:01.740Z,2.75
2023-04-28T01:04:31.174Z,3.20
2023-04-28T01:07:02.064Z,2.80
2023-04-28T01:09:30.097Z,3.20
2023-04-28T01:11:58.589Z,2.95
2023-04-28T01:14:26.752Z,3.03
2023-04-28T01:16:55.423Z,3.30
2023-04-28T01:19:24.515Z,2.92
2023-04-28T01:21:52.577Z,2.97
2023-04-28T01:24:22.125Z,3.17
2023-04-28T01:26:50.224Z,3.20
2023-04-28T01:29:18.369Z,2.75
2023-04-28T01:31:46.545Z,3.50
2023-04-28T01:34:15.153Z,2.70
2023-04-28T01:36:43.505Z,3.20
2023-04-28T01:39:11.916Z,3.70
2023-04-28T01:41:41.494Z,2.90
2023-04-28T01:44:09.701Z,3.00
2023-04-28T01:46:37.761Z,3.65
2023-04-28T01:49:06.093Z,2.78
2023-04-28T01:51:34.524Z,3.28
2023-04-28T01:54:03.418Z,3.45
2023-04-28T01:56:31.478Z,3.00
2023-04-28T01:59:01.245Z,3.00
2023-04-28T02:01:29.349Z,3.33
2023-04-28T02:03:57.574Z,3.83
2023-04-28T02:06:25.815Z,4.00
2023-04-28T02:08:53.934Z,3.00
2023-04-28T02:11:22.100Z,3.00
2023-04-28T02:13:50.971Z,3.10
2023-04-28T02:16:20.561Z,2.22
2023-04-28T02:18:49.000Z,2.88
2023-04-28T02:21:17.138Z,3.00
2023-04-28T02:23:45.241Z,3.10
2023-04-28T02:26:13.392Z,3.47
2023-04-28T02:28:41.558Z,3.33
2023-04-28T02:31:11.260Z,3.03
2023-04-28T02:33:42.442Z,2.75
2023-04-28T02:36:11.753Z,3.05
2023-04-28T02:38:41.664Z,3.03
2023-04-28T02:41:10.277Z,3.30
2023-04-28T02:43:38.916Z,3.53
2023-04-28T02:46:07.111Z,3.35
2023-04-28T02:48:37.482Z,3.45
2023-04-28T02:51:07.149Z,3.35
2023-04-28T02:53:35.203Z,2.97
2023-04-28T02:56:04.700Z,3.22
2023-04-28T02:58:32.785Z,3.03
2023-04-28T03:01:01.353Z,2.85
2023-04-28T03:03:29.609Z,2.63
2023-04-28T03:05:58.070Z,2.70
2023-04-28T03:08:27.509Z,2.42
2023-04-28T03:10:55.742Z,2.95
2023-04-28T03:13:23.837Z,3.33
2023-04-28T03:15:52.634Z,3.42
2023-04-28T03:18:20.903Z,3.17
2023-04-28T03:20:49.021Z,3.92
2023-04-28T03:23:17.091Z,4.00
2023-04-28T03:25:46.567Z,3.90
2023-04-28T03:28:14.609Z,3.78
2023-04-28T03:30:42.693Z,4.05
2023-04-28T03:33:10.951Z,3.75
2023-04-28T03:35:39.226Z,3.55
2023-04-28T03:38:07.247Z,3.63
2023-04-28T03:40:35.270Z,3.60
2023-04-28T03:43:04.992Z,3.80
2023-04-28T03:45:33.281Z,3.72
2023-04-28T03:48:01.411Z,3.30
2023-04-28T03:50:29.490Z,3.67
2023-04-28T03:52:57.511Z,2.90
2023-04-28T03:55:26.141Z,3.17
2023-04-28T03:57:54.408Z,3.20
2023-04-28T04:00:23.853Z,2.90
2023-04-28T04:02:52.039Z,2.78
2023-04-28T04:05:20.319Z,2.50
2023-04-28T04:07:48.535Z,2.80
2023-04-28T04:10:17.370Z,3.17
2023-04-28T04:12:45.424Z,2.67
2023-04-28T04:15:13.530Z,2.83
2023-04-28T04:17:43.104Z,2.97
2023-04-28T04:20:12.133Z,3.13
2023-04-28T04:22:40.196Z,2.58
2023-04-28T04:25:08.874Z,3.03
2023-04-28T04:27:37.009Z,2.83
2023-04-28T04:30:05.790Z,3.10
2023-04-28T04:32:33.912Z,2.90
2023-04-28T04:35:03.361Z,2.92
2023-04-28T04:37:31.423Z,3.00
2023-04-28T04:39:59.557Z,3.15
2023-04-28T04:42:27.668Z,3.17
2023-04-28T04:44:55.966Z,3.05
2023-04-28T04:47:24.108Z,3.67
2023-04-28T04:49:52.561Z,3.70
2023-04-28T04:52:22.088Z,3.63
2023-04-28T04:54:50.283Z,3.58
2023-04-28T04:57:18.529Z,3.30
2023-04-28T04:59:46.734Z,4.13
2023-04-28T05:02:14.991Z,3.13
2023-04-28T05:04:43.304Z,3.20
2023-04-28T05:07:11.524Z,2.97
2023-04-28T05:09:42.976Z,3.03
2023-04-28T05:12:11.063Z,3.22
2023-04-28T05:14:39.094Z,3.25
2023-04-28T05:17:07.338Z,3.13
2023-04-28T05:19:35.489Z,3.00
2023-04-28T05:22:03.750Z,2.78
2023-04-28T05:24:31.948Z,2.70
2023-04-28T05:27:01.830Z,3.15
2023-04-28T05:29:29.858Z,2.42
2023-04-28T05:31:57.996Z,2.30
2023-04-28T05:34:26.682Z,2.67
2023-04-28T05:36:54.788Z,2.50
2023-04-28T05:39:22.894Z,2.35
2023-04-28T05:41:51.030Z,2.60
2023-04-28T05:44:20.655Z,2.70
2023-04-28T05:46:48.757Z,3.38
2023-04-28T05:49:18.146Z,2.75
2023-04-28T05:51:46.261Z,2.80
2023-04-28T05:54:14.565Z,2.60
2023-04-28T05:56:42.749Z,3.10
2023-04-28T05:59:10.888Z,3.45
2023-04-28T06:01:40.478Z,3.03
2023-04-28T06:04:08.769Z,3.05
2023-04-28T06:06:37.145Z,2.60
2023-04-28T06:09:05.670Z,2.85
2023-04-28T06:11:33.726Z,2.83
2023-04-28T06:14:01.882Z,2.70
2023-04-28T06:16:30.520Z,2.47
2023-04-28T06:19:00.186Z,2.70
2023-04-28T06:21:29.380Z,2.78
2023-04-28T06:23:57.447Z,2.78
2023-04-28T06:26:25.672Z,3.35
2023-04-28T06:28:53.797Z,2.83
2023-04-28T06:31:21.948Z,2.70
2023-04-28T06:33:50.100Z,3.53
2023-04-28T06:36:19.533Z,2.50
2023-04-28T06:38:47.788Z,2.75
2023-04-28T06:41:15.847Z,3.05
2023-04-28T06:43:44.230Z,2.70
2023-04-28T06:46:12.658Z,3.10
2023-04-28T06:48:42.668Z,3.33
2023-04-28T06:51:10.748Z,3.60
2023-04-28T06:53:40.086Z,2.97
2023-04-28T06:56:11.060Z,2.97
2023-04-28T06:58:39.768Z,3.58
2023-04-28T07:01:07.882Z,3.63
2023-04-28T07:03:36.266Z,3.53
2023-04-28T07:06:04.897Z,3.67
2023-04-28T07:08:33.228Z,4.07
2023-04-28T07:11:04.942Z,4.80
2023-04-28T07:13:33.238Z,4.18
2023-04-28T07:16:01.449Z,4.10
2023-04-28T07:18:29.969Z,4.45
2023-04-28T07:21:37.113Z,5.03
2023-04-28T07:24:05.485Z,4.47
2023-04-28T07:26:35.165Z,4.50
2023-04-28T07:29:03.436Z,4.30
2023-04-28T07:31:31.761Z,4.00
2023-04-28T07:34:02.960Z,3.67
2023-04-28T07:36:31.218Z,4.53
2023-04-28T07:39:01.213Z,4.53
2023-04-28T07:41:30.242Z,3.90
2023-04-28T07:43:59.727Z,4.35
2023-04-28T07:46:28.173Z,3.90
2023-04-28T07:48:56.374Z,3.67
2023-04-28T07:51:24.422Z,4.45
2023-04-28T07:53:52.587Z,4.13
2023-04-28T07:56:21.992Z,4.60
2023-04-28T07:58:50.521Z,4.47
2023-04-28T08:01:20.016Z,4.55
2023-04-28T08:03:48.443Z,4.07
2023-04-28T08:06:16.915Z,4.10
2023-04-28T08:08:45.764Z,4.43
2023-04-28T08:11:13.869Z,3.25
2023-04-28T08:13:41.981Z,3.60
2023-04-28T08:16:10.151Z,4.07
2023-04-28T08:18:40.046Z,4.45
2023-04-28T08:21:08.423Z,4.20
2023-04-28T08:23:36.544Z,4.50
2023-04-28T08:26:05.970Z,5.00
2023-04-28T08:28:34.702Z,4.13
2023-04-28T08:31:02.962Z,3.97
2023-04-28T08:33:31.077Z,4.72
2023-04-28T08:36:00.716Z,3.35
2023-04-28T08:38:28.797Z,3.38
2023-04-28T08:40:56.820Z,3.33
2023-04-28T08:43:26.425Z,3.42
2023-04-28T08:45:54.820Z,3.58
2023-04-28T08:48:23.842Z,3.10
2023-04-28T08:50:53.688Z,2.40
2023-04-28T08:53:26.587Z,2.53
2023-04-28T08:55:56.749Z,2.97
2023-04-28T08:58:25.560Z,2.72
2023-04-28T09:00:53.928Z,2.03
2023-04-28T09:03:22.322Z,2.10
2023-04-28T09:05:50.655Z,2.22
2023-04-28T09:08:18.997Z,2.35
2023-04-28T09:10:48.548Z,2.88
2023-04-28T09:13:26.763Z,2.28
2023-04-28T09:16:01.178Z,2.58
2023-04-28T09:18:29.257Z,2.30
2023-04-28T09:21:05.633Z,2.78
2023-04-28T09:23:34.738Z,2.40
2023-04-28T09:26:06.628Z,2.63
2023-04-28T09:28:35.899Z,2.70
2023-04-28T09:31:05.079Z,1.73
2023-04-28T09:33:33.275Z,1.98
2023-04-28T09:36:01.429Z,1.90
2023-04-28T09:38:29.501Z,2.00
2023-04-28T09:40:59.639Z,2.03
2023-04-28T09:43:31.241Z,2.17
2023-04-28T09:46:01.345Z,2.00
2023-04-28T09:48:34.058Z,2.88
2023-04-28T09:53:31.825Z,2.20
2023-04-28T09:56:01.527Z,2.35
2023-04-28T09:58:33.176Z,2.40
2023-04-28T10:01:02.566Z,2.23
2023-04-28T10:03:32.295Z,2.50
2023-04-28T10:06:00.960Z,2.15
2023-04-28T10:08:29.670Z,2.72
2023-04-28T10:10:58.690Z,2.30
2023-04-28T10:13:26.852Z,2.63
2023-04-28T10:15:58.621Z,2.55
2023-04-28T10:18:27.484Z,2.05
2023-04-28T10:20:59.379Z,2.50
2023-04-28T10:23:44.840Z,2.35
2023-04-28T10:26:18.542Z,2.30
2023-04-28T10:28:48.577Z,2.47
2023-04-28T10:31:21.332Z,2.40
2023-04-28T10:33:50.748Z,2.72
2023-04-28T10:36:51.061Z,2.50
2023-04-28T10:39:19.668Z,2.58
2023-04-28T10:41:49.204Z,1.75
2023-04-28T10:44:45.299Z,2.20
2023-04-28T10:47:14.841Z,2.20
2023-04-28T10:50:11.567Z,2.05
2023-04-28T10:52:52.079Z,1.92
2023-04-28T10:55:33.007Z,2.05
2023-04-28T10:58:34.436Z,1.90
2023-04-28T11:01:28.424Z,1.88
2023-04-28T11:04:04.546Z,1.90
2023-04-28T11:06:34.864Z,2.17
2023-04-28T11:09:04.312Z,1.85
2023-04-28T11:11:35.088Z,2.40
2023-04-28T11:14:35.680Z,2.10
2023-04-28T11:17:05.510Z,2.00
2023-04-28T11:19:36.615Z,2.60
2023-04-28T11:22:10.040Z,1.75
2023-04-28T11:24:38.430Z,1.90
2023-04-28T11:27:06.631Z,1.60
2023-04-28T11:29:36.327Z,2.10
2023-04-28T11:32:04.954Z,1.90
2023-04-28T11:34:34.783Z,1.80
2023-04-28T11:37:03.073Z,1.90
2023-04-28T11:39:32.633Z,2.00
2023-04-28T11:42:02.520Z,1.67
2023-04-28T11:44:31.883Z,1.73
2023-04-28T11:47:03.374Z,2.08
2023-04-28T11:49:33.802Z,2.10
2023-04-28T11:52:08.083Z,1.88
2023-04-28T11:54:37.630Z,1.60
2023-04-28T11:57:06.808Z,1.70
2023-04-28T11:59:37.797Z,1.85
2023-04-28T12:02:09.233Z,2.10
2023-04-28T12:04:38.663Z,1.55
2023-04-28T12:07:10.509Z,2.20
2023-04-28T12:09:41.205Z,2.00
2023-04-28T12:12:12.036Z,2.15
2023-04-28T12:14:56.954Z,1.92
2023-04-28T12:17:26.864Z,2.13
2023-04-28T12:19:55.419Z,2.05
2023-04-28T12:22:25.558Z,2.05
2023-04-28T12:25:08.420Z,2.25
2023-04-28T12:27:39.228Z,1.77
2023-04-28T12:30:28.789Z,2.05
2023-04-28T12:32:57.721Z,1.98
2023-04-28T12:35:27.060Z,1.73
2023-04-28T12:37:58.700Z,1.73
2023-04-28T12:40:27.401Z,1.90
2023-04-28T12:42:55.687Z,2.05
2023-04-28T12:45:23.727Z,1.58
2023-04-28T12:47:52.110Z,1.70
2023-04-28T12:50:20.443Z,1.85
2023-04-28T12:52:48.562Z,1.67
2023-04-28T12:55:18.230Z,2.05
2023-04-28T12:57:46.316Z,2.20
2023-04-28T13:00:16.473Z,2.00
2023-04-28T13:02:45.609Z,2.10
2023-04-28T13:05:14.522Z,2.10
2023-04-28T13:07:42.745Z,1.80
2023-04-28T13:10:11.477Z,2.10
2023-04-28T13:12:41.371Z,1.65
2023-04-28T13:15:10.665Z,1.63
2023-04-28T13:17:38.823Z,1.75
2023-04-28T13:20:08.275Z,2.00
2023-04-28T13:22:36.407Z,1.80
2023-04-28T13:25:04.903Z,1.88
2023-04-28T13:27:33.481Z,2.03
2023-04-28T13:30:04.148Z,2.13
2023-04-28T13:32:32.396Z,2.03
2023-04-28T13:35:00.488Z,1.40
2023-04-28T13:37:28.530Z,1.88
2023-04-28T13:39:56.540Z,2.03
2023-04-28T13:42:24.748Z,1.75
2023-04-28T13:44:52.801Z,1.75
2023-04-28T13:47:22.673Z,1.90
2023-04-28T13:49:50.746Z,1.83
2023-04-28T13:52:18.952Z,1.70
2023-04-28T13:54:47.271Z,1.67
2023-04-28T13:57:15.701Z,2.05
2023-04-28T13:59:43.979Z,1.85
2023-04-28T14:02:12.108Z,2.00
2023-04-28T14:04:48.712Z,1.90
2023-04-28T14:07:17.420Z,1.80
2023-04-28T14:09:45.664Z,1.75
2023-04-28T14:12:15.485Z,1.70
2023-04-28T14:14:44.103Z,1.80
2023-04-28T14:17:12.678Z,2.28
2023-04-28T14:19:42.152Z,1.95
2023-04-28T14:22:10.372Z,2.00
2023-04-28T14:24:38.402Z,1.60
2023-04-28T14:27:06.574Z,1.52
2023-04-28T14:29:34.659Z,1.88
2023-04-28T14:32:02.688Z,1.77
2023-04-28T14:34:30.755Z,1.83
2023-04-28T14:37:00.319Z,1.90
2023-04-28T14:39:29.079Z,1.83
2023-04-28T14:41:57.303Z,1.95
2023-04-28T14:44:25.435Z,1.90
2023-04-28T14:46:53.511Z,1.90
2023-04-28T14:49:21.672Z,1.52
2023-04-28T14:51:50.979Z,2.22
2023-04-28T14:54:21.302Z,2.10
2023-04-28T14:56:50.361Z,1.95
2023-04-28T14:59:18.926Z,2.50
2023-04-28T15:01:47.234Z,1.98
2023-04-28T15:04:15.810Z,2.05
2023-04-28T15:06:44.436Z,1.83
2023-04-28T15:09:12.882Z,1.52
2023-04-28T15:11:42.374Z,1.65
2023-04-28T15:14:10.549Z,1.85
2023-04-28T15:16:38.919Z,2.13
2023-04-28T15:19:07.465Z,1.83
2023-04-28T15:21:35.982Z,1.88
2023-04-28T15:24:04.205Z,1.92
2023-04-28T15:26:32.617Z,2.30
2023-04-28T15:29:02.183Z,2.08
2023-04-28T15:31:30.348Z,2.20
2023-04-28T15:33:58.378Z,2.20
2023-04-28T15:36:26.893Z,2.72
2023-04-28T15:38:54.917Z,2.55
2023-04-28T15:41:23.104Z,1.83
2023-04-28T15:43:51.182Z,2.42
2023-04-28T15:46:21.786Z,2.22
2023-04-28T15:48:50.081Z,1.70
2023-04-28T15:51:18.667Z,1.40
2023-04-28T15:53:46.827Z,1.80
2023-04-28T15:56:15.081Z,2.17
2023-04-28T15:58:43.868Z,1.80
2023-04-28T16:01:12.198Z,1.85
2023-04-28T16:03:42.961Z,2.22
2023-04-28T16:06:12.338Z,2.40
2023-04-28T16:08:40.563Z,1.80
2023-04-28T16:11:11.362Z,1.80
2023-04-28T16:13:39.498Z,1.70
2023-04-28T16:16:09.779Z,1.80
2023-04-28T16:18:41.250Z,1.77
2023-04-28T16:21:09.397Z,2.05
2023-04-28T16:23:37.937Z,2.15
2023-04-28T16:26:06.276Z,2.38
2023-04-28T16:28:34.339Z,2.10
2023-04-28T16:31:02.500Z,2.25
2023-04-28T16:33:33.112Z,1.90
2023-04-28T16:36:05.582Z,2.65
2023-04-28T16:38:33.833Z,2.30
2023-04-28T16:41:02.054Z,2.03
2023-04-28T16:43:32.193Z,2.13
2023-04-28T16:46:00.674Z,2.13
2023-04-28T16:48:29.261Z,2.08
2023-04-28T16:50:57.390Z,2.28
2023-04-28T16:53:26.837Z,2.30
2023-04-28T16:55:54.918Z,2.50
2023-04-28T16:58:22.993Z,1.80
2023-04-28T17:00:51.162Z,2.20
2023-04-28T17:03:20.158Z,2.30
2023-04-28T17:05:48.583Z,2.70
2023-04-28T17:08:16.710Z,2.63
2023-04-28T17:10:47.995Z,2.28
2023-04-28T17:13:16.033Z,3.45
2023-04-28T17:15:44.091Z,2.40
2023-04-28T17:18:12.177Z,2.00
2023-04-28T17:20:41.384Z,2.22
2023-04-28T17:23:09.536Z,2.22
2023-04-28T17:25:48.108Z,2.60
2023-04-28T17:28:17.621Z,2.10
2023-04-28T17:30:47.428Z,2.25
2023-04-28T17:33:16.263Z,2.42
2023-04-28T17:35:44.453Z,2.58
2023-04-28T17:38:12.667Z,2.80
2023-04-28T17:40:40.743Z,2.80
2023-04-28T17:43:08.775Z,3.28
2023-04-28T17:45:38.255Z,2.72
2023-04-28T17:48:07.697Z,2.88
2023-04-28T17:50:35.856Z,3.10
2023-04-28T17:53:03.977Z,2.83
2023-04-28T17:55:33.054Z,3.25
2023-04-28T17:58:01.227Z,2.53
2023-04-28T18:00:29.293Z,3.00
2023-04-28T18:03:00.193Z,2.80
2023-04-28T18:05:29.333Z,2.90
2023-04-28T18:07:57.855Z,3.03
2023-04-28T18:10:28.245Z,2.60
2023-04-28T18:12:56.538Z,2.90
2023-04-28T18:15:25.067Z,2.80
2023-04-28T18:17:53.404Z,3.55
2023-04-28T18:20:23.389Z,3.35
2023-04-28T18:22:51.679Z,3.63
2023-04-28T18:25:20.225Z,3.50
2023-04-28T18:27:48.557Z,3.30
2023-04-28T18:30:17.001Z,3.80
2023-04-28T18:32:45.435Z,3.65
2023-04-28T18:35:15.464Z,4.00
2023-04-28T18:37:47.418Z,3.95
2023-04-28T18:40:16.231Z,4.00
2023-04-28T18:42:45.077Z,3.65
2023-04-28T18:45:13.353Z,3.53
2023-04-28T18:47:42.630Z,3.20
2023-04-28T18:50:11.613Z,4.22
2023-04-28T18:52:41.036Z,4.00
2023-04-28T18:55:12.496Z,4.13
2023-04-28T18:57:41.133Z,4.53
2023-04-28T19:00:12.045Z,5.18
2023-04-28T19:02:41.018Z,4.47
2023-04-28T19:05:10.099Z,5.03
2023-04-28T19:07:39.281Z,5.30
2023-04-28T19:10:08.858Z,4.78
2023-04-28T19:12:39.309Z,5.40
2023-04-28T19:15:08.555Z,5.57
2023-04-28T19:17:39.537Z,5.43
2023-04-28T19:20:11.031Z,5.50
2023-04-28T19:22:41.459Z,5.38
2023-04-28T19:25:11.524Z,5.35
2023-04-28T19:27:43.412Z,5.43
2023-04-28T19:30:15.116Z,5.88
2023-04-28T19:32:44.896Z,5.90
2023-04-28T19:35:14.748Z,5.68
2023-04-28T19:37:43.186Z,6.13
2023-04-28T19:40:13.844Z,6.53
2023-04-28T19:42:44.796Z,6.88
2023-04-28T19:45:14.492Z,5.20
2023-04-28T19:47:43.803Z,5.97
2023-04-28T19:50:13.042Z,6.35
2023-04-28T19:52:42.457Z,5.80
2023-04-28T19:55:11.988Z,6.93
2023-04-28T19:57:41.626Z,7.03
2023-04-28T20:00:13.506Z,6.65
2023-04-28T20:02:43.270Z,7.78
2023-04-28T20:05:13.038Z,6.70
2023-04-28T20:07:42.710Z,6.65
2023-04-28T20:10:12.230Z,7.30
2023-04-28T20:12:41.310Z,7.13
2023-04-28T20:15:12.865Z,7.22
2023-04-28T20:17:42.192Z,7.47
2023-04-28T20:20:13.577Z,7.57
2023-04-28T20:22:41.986Z,6.63
2023-04-28T20:25:12.481Z,6.05
2023-04-28T20:27:41.314Z,6.82
2023-04-28T20:30:12.122Z,6.60
2023-04-28T20:32:40.306Z,5.90
2023-04-28T20:35:09.184Z,5.78
2023-04-28T20:37:37.562Z,5.80
2023-04-28T20:40:06.813Z,5.22
2023-04-28T20:42:35.079Z,5.85
2023-04-28T20:45:04.584Z,6.13
2023-04-28T20:47:34.529Z,6.50
2023-04-28T20:50:03.131Z,5.45
2023-04-28T20:52:34.296Z,5.55
2023-04-28T20:55:03.100Z,5.20
2023-04-28T20:57:31.330Z,5.18
2023-04-28T20:59:59.423Z,5.47
2023-04-28T21:02:27.549Z,5.95
2023-04-28T21:04:57.156Z,5.75
2023-04-28T21:07:25.360Z,5.43
2023-04-28T21:09:53.511Z,5.93
2023-04-28T21:12:21.610Z,5.97
2023-04-28T21:14:49.955Z,7.43
2023-04-28T21:17:18.118Z,7.43
2023-04-28T21:19:46.412Z,8.50
2023-04-28T21:22:16.795Z,10.40
2023-04-28T21:24:44.863Z,12.27
2023-04-28T21:27:13.002Z,11.95
2023-04-28T21:29:41.012Z,14.50
2023-04-28T21:32:09.237Z,16.25
2023-04-28T21:34:37.341Z,15.95
2023-04-28T21:37:05.731Z,16.95
2023-04-28T21:39:36.780Z,16.90
2023-04-28T21:42:07.726Z,15.73
2023-04-28T21:44:35.775Z,15.05
2023-04-28T21:47:03.823Z,14.60
2023-04-28T21:49:32.098Z,12.90
2023-04-28T21:52:00.134Z,13.77
2023-04-28T21:54:28.212Z,13.02
2023-04-28T21:56:57.707Z,13.85
2023-04-28T21:59:25.794Z,13.95
2023-04-28T22:01:54.064Z,12.88
2023-04-28T22:04:22.524Z,13.90
2023-04-28T22:06:51.082Z,13.65
2023-04-28T22:09:19.167Z,14.38
2023-04-28T22:11:50.009Z,14.07
2023-04-28T22:14:38.735Z,13.85
2023-04-28T22:17:07.602Z,14.23
2023-04-28T22:19:35.717Z,13.15
2023-04-28T22:22:03.814Z,13.27
2023-04-28T22:24:33.483Z,12.93
2023-04-28T22:27:01.566Z,12.23
2023-04-28T22:29:31.355Z,11.88
2023-04-28T22:31:59.810Z,10.75
2023-04-28T22:34:27.969Z,11.77
2023-04-28T22:36:56.298Z,10.75
2023-04-28T22:39:25.222Z,10.52
2023-04-28T22:41:53.323Z,9.98
2023-04-28T22:44:21.393Z,10.73
2023-04-28T22:46:50.932Z,11.27
2023-04-28T22:49:24.611Z,11.30
2023-04-28T22:51:52.675Z,11.45
2023-04-28T22:54:20.759Z,10.82
2023-04-28T22:56:50.731Z,10.90
2023-04-28T22:59:20.110Z,11.25
2023-04-28T23:01:48.256Z,11.68
2023-04-28T23:04:17.992Z,11.25
2023-04-28T23:06:46.326Z,11.15
2023-04-28T23:09:14.396Z,10.85
2023-04-28T23:11:42.539Z,10.98
2023-04-28T23:14:10.592Z,9.35
2023-04-28T23:16:38.866Z,8.40
2023-04-28T23:19:07.169Z,9.13
2023-04-28T23:21:36.599Z,8.95
2023-04-28T23:24:04.973Z,9.45
2023-04-28T23:26:33.060Z,8.68
2023-04-28T23:29:01.180Z,8.65
2023-04-28T23:31:29.553Z,8.07
2023-04-28T23:33:57.720Z,7.88
2023-04-28T23:36:25.858Z,7.13
2023-04-28T23:38:55.329Z,8.25
2023-04-28T23:41:23.428Z,7.10
2023-04-28T23:43:52.050Z,7.72
2023-04-28T23:46:20.470Z,7.30
2023-04-28T23:48:48.613Z,7.30
2023-04-28T23:51:17.909Z,7.53
2023-04-28T23:53:46.036Z,6.75
2023-04-28T23:56:15.555Z,6.45
2023-04-28T23:58:43.660Z,6.95
